createdAt,value
2022-08-05T00:00:18.935Z,101360.00
2022-08-05T00:02:51.070Z,101358.00
2022-08-05T00:06:03.029Z,101370.00
2022-08-05T00:08:32.901Z,101325.00
2022-08-05T00:11:00.550Z,101339.00
2022-08-05T00:13:38.121Z,101327.00
2022-08-05T00:16:12.265Z,101352.00
2022-08-05T00:18:44.231Z,101366.00
2022-08-05T00:21:15.983Z,101372.00
2022-08-05T00:23:53.746Z,101386.00
2022-08-05T00:26:34.997Z,101414.00
2022-08-05T00:29:03.508Z,101401.00
2022-08-05T00:31:53.427Z,101405.00
2022-08-05T00:34:54.152Z,101413.00
2022-08-05T00:37:13.869Z,101411.00
2022-08-05T00:39:44.121Z,101387.00
2022-08-05T00:42:31.508Z,101363.00
2022-08-05T00:45:01.005Z,101367.00
2022-08-05T00:47:49.175Z,101399.00
2022-08-05T00:50:18.090Z,101422.00
2022-08-05T00:52:47.868Z,101411.00
2022-08-05T00:55:16.180Z,101416.00
2022-08-05T00:57:58.012Z,101405.00
2022-08-05T01:00:28.197Z,101412.00
2022-08-05T01:02:57.192Z,101400.00
2022-08-05T01:05:27.459Z,101389.00
2022-08-05T01:08:40.218Z,101398.00
2022-08-05T01:10:53.261Z,101394.00
2022-08-05T01:13:57.952Z,101394.00
2022-08-05T01:16:27.929Z,101375.00
2022-08-05T01:19:07.750Z,101374.00
2022-08-05T01:22:06.603Z,101372.00
2022-08-05T01:25:16.766Z,101370.00
2022-08-05T01:28:29.039Z,101380.00
2022-08-05T01:31:03.177Z,101379.00
2022-08-05T01:33:37.239Z,101380.00
2022-08-05T01:36:16.155Z,101369.00
2022-08-05T01:38:48.434Z,101371.00
2022-08-05T01:41:25.789Z,101373.00
2022-08-05T01:43:57.088Z,101364.00
2022-08-05T01:46:43.184Z,101367.00
2022-08-05T01:49:23.709Z,101376.00
2022-08-05T01:51:59.003Z,101344.00
2022-08-05T01:54:34.794Z,101384.00
2022-08-05T01:58:10.129Z,101369.00
2022-08-05T02:00:12.377Z,101383.00
2022-08-05T02:02:53.574Z,101380.00
2022-08-05T02:05:29.179Z,101368.00
2022-08-05T02:08:01.270Z,101378.00
2022-08-05T02:10:36.234Z,101381.00
2022-08-05T02:13:15.875Z,101375.00
2022-08-05T02:15:51.396Z,101397.00
2022-08-05T02:18:31.485Z,101390.00
2022-08-05T02:21:15.123Z,101385.00
2022-08-05T02:23:48.485Z,101381.00
2022-08-05T02:26:22.966Z,101392.00
2022-08-05T02:28:58.103Z,101375.00
2022-08-05T02:31:34.855Z,101401.00
2022-08-05T02:34:09.941Z,101400.00
2022-08-05T02:36:45.453Z,101398.00
2022-08-05T02:39:21.383Z,101408.00
2022-08-05T02:42:00.376Z,101410.00
2022-08-05T02:44:31.986Z,101407.00
2022-08-05T02:47:03.379Z,101407.00
2022-08-05T02:49:40.373Z,101389.00
2022-08-05T02:52:29.741Z,101393.00
2022-08-05T02:55:05.602Z,101416.00
2022-08-05T02:58:10.545Z,101413.00
2022-08-05T03:00:31.283Z,101419.00
2022-08-05T03:03:03.201Z,101424.00
2022-08-05T03:06:54.785Z,101427.00
2022-08-05T03:08:29.745Z,101426.00
2022-08-05T03:11:53.016Z,101407.00
2022-08-05T03:13:52.047Z,101431.00
2022-08-05T03:16:31.624Z,101431.00
2022-08-05T03:19:01.624Z,101403.00
2022-08-05T03:21:49.388Z,101424.00
2022-08-05T03:24:23.661Z,101409.00
2022-08-05T03:26:59.130Z,101405.00
2022-08-05T03:29:45.551Z,101412.00
2022-08-05T03:32:17.084Z,101400.00
2022-08-05T03:34:51.246Z,101389.00
2022-08-05T03:37:22.632Z,101391.00
2022-08-05T03:39:59.445Z,101374.00
2022-08-05T03:42:32.792Z,101382.00
2022-08-05T03:45:21.957Z,101390.00
2022-08-05T03:47:51.397Z,101393.00
2022-08-05T03:50:22.243Z,101386.00
2022-08-05T03:55:50.693Z,101376.00
2022-08-05T03:56:17.126Z,101363.00
2022-08-05T03:58:58.396Z,101381.00
2022-08-05T04:01:27.738Z,101377.00
2022-08-05T04:04:09.902Z,101381.00
2022-08-05T04:06:47.832Z,101386.00
2022-08-05T04:09:26.079Z,101385.00
2022-08-05T04:11:56.668Z,101366.00
2022-08-05T04:14:29.760Z,101360.00
2022-08-05T04:17:02.921Z,101396.00
2022-08-05T04:19:32.023Z,101379.00
2022-08-05T04:22:08.434Z,101387.00
2022-08-05T04:24:39.090Z,101393.00
2022-08-05T04:27:14.201Z,101393.00
2022-08-05T04:29:43.696Z,101362.00
2022-08-05T04:32:12.681Z,101400.00
2022-08-05T04:34:42.850Z,101388.00
2022-08-05T04:37:13.103Z,101389.00
2022-08-05T04:39:41.541Z,101388.00
2022-08-05T04:42:10.540Z,101394.00
2022-08-05T04:44:39.278Z,101388.00
2022-08-05T04:47:08.811Z,101393.00
2022-08-05T04:50:02.487Z,101394.00
2022-08-05T04:52:33.338Z,101394.00
2022-08-05T04:55:13.799Z,101393.00
2022-08-05T04:57:48.039Z,101383.00
2022-08-05T05:00:23.655Z,101400.00
2022-08-05T05:02:52.824Z,101407.00
2022-08-05T05:05:28.109Z,101387.00
2022-08-05T05:08:02.767Z,101407.00
2022-08-05T05:10:33.770Z,101401.00
2022-08-05T05:13:04.218Z,101401.00
2022-08-05T05:15:57.198Z,101410.00
2022-08-05T05:18:28.468Z,101416.00
2022-08-05T05:21:03.626Z,101424.00
2022-08-05T05:23:38.993Z,101395.00
2022-08-05T05:26:28.835Z,101405.00
2022-08-05T05:29:02.688Z,101398.00
2022-08-05T05:31:43.027Z,101385.00
2022-08-05T05:34:15.826Z,101393.00
2022-08-05T05:36:45.721Z,101410.00
2022-08-05T05:39:19.168Z,101405.00
2022-08-05T05:41:54.096Z,101409.00
2022-08-05T05:44:35.715Z,101403.00
2022-08-05T05:47:13.119Z,101408.00
2022-08-05T05:49:52.512Z,101410.00
2022-08-05T05:52:29.905Z,101406.00
2022-08-05T05:55:02.486Z,101421.00
2022-08-05T05:57:52.409Z,101409.00
2022-08-05T06:00:31.516Z,101434.00
2022-08-05T06:03:03.469Z,101421.00
2022-08-05T06:05:54.285Z,101428.00
2022-08-05T06:08:32.328Z,101437.00
2022-08-05T06:11:02.962Z,101424.00
2022-08-05T06:13:40.883Z,101431.00
2022-08-05T06:16:28.474Z,101428.00
2022-08-05T06:19:01.999Z,101429.00
2022-08-05T06:21:36.105Z,101431.00
2022-08-05T06:24:11.952Z,101440.00
2022-08-05T06:26:51.438Z,101440.00
2022-08-05T06:29:25.329Z,101411.00
2022-08-05T06:32:26.217Z,101426.00
2022-08-05T06:34:58.774Z,101447.00
2022-08-05T06:37:56.082Z,101452.00
2022-08-05T06:40:20.750Z,101447.00
2022-08-05T06:42:52.934Z,101458.00
2022-08-05T06:45:44.884Z,101464.00
2022-08-05T06:48:55.427Z,101460.00
2022-08-05T06:51:00.249Z,101469.00
2022-08-05T06:53:29.458Z,101475.00
2022-08-05T06:55:59.282Z,101461.00
2022-08-05T06:58:36.134Z,101460.00
2022-08-05T07:01:07.167Z,101430.00
2022-08-05T07:03:36.317Z,101454.00
2022-08-05T07:06:14.351Z,101466.00
2022-08-05T07:08:47.467Z,101469.00
2022-08-05T07:11:22.553Z,101446.00
2022-08-05T07:14:20.318Z,101461.00
2022-08-05T07:17:58.331Z,101459.00
2022-08-05T07:20:32.059Z,101473.00
2022-08-05T07:22:38.994Z,101459.00
2022-08-05T07:25:22.023Z,101476.00
2022-08-05T07:27:57.421Z,101471.00
2022-08-05T07:30:34.332Z,101488.00
2022-08-05T07:33:05.536Z,101463.00
2022-08-05T07:36:04.783Z,101486.00
2022-08-05T07:38:33.509Z,101484.00
2022-08-05T07:42:07.408Z,101470.00
2022-08-05T07:43:56.322Z,101477.00
2022-08-05T07:46:28.056Z,101469.00
2022-08-05T07:49:03.027Z,101487.00
2022-08-05T07:51:48.564Z,101494.00
2022-08-05T07:54:23.238Z,101486.00
2022-08-05T07:57:01.749Z,101481.00
2022-08-05T07:59:43.759Z,101475.00
2022-08-05T08:02:18.054Z,101486.00
2022-08-05T08:04:49.174Z,101487.00
2022-08-05T08:07:22.141Z,101495.00
2022-08-05T08:09:54.977Z,101486.00
2022-08-05T08:12:37.115Z,101494.00
2022-08-05T08:15:15.252Z,101496.00
2022-08-05T08:17:50.760Z,101492.00
2022-08-05T08:21:00.371Z,101491.00
2022-08-05T08:24:01.044Z,101509.00
2022-08-05T08:26:02.877Z,101502.00
2022-08-05T08:28:37.035Z,101497.00
2022-08-05T08:31:14.876Z,101513.00
2022-08-05T08:33:51.466Z,101519.00
2022-08-05T08:36:37.535Z,101522.00
2022-08-05T08:39:15.767Z,101519.00
2022-08-05T08:41:51.965Z,101527.00
2022-08-05T08:45:21.319Z,101530.00
2022-08-05T08:48:06.205Z,101528.00
2022-08-05T08:50:30.972Z,101509.00
2022-08-05T08:53:11.964Z,101526.00
2022-08-05T08:56:03.003Z,101537.00
2022-08-05T08:58:37.479Z,101540.00
2022-08-05T09:01:16.682Z,101537.00
2022-08-05T09:03:54.576Z,101529.00
2022-08-05T09:06:29.449Z,101535.00
2022-08-05T09:09:00.107Z,101521.00
2022-08-05T09:11:51.071Z,101532.00
2022-08-05T09:14:57.544Z,101531.00
2022-08-05T09:17:09.791Z,101529.00
2022-08-05T09:20:02.453Z,101540.00
2022-08-05T09:23:19.242Z,101542.00
2022-08-05T09:26:01.915Z,101538.00
2022-08-05T09:28:34.733Z,101539.00
2022-08-05T09:31:43.312Z,101543.00
2022-08-05T09:33:59.576Z,101542.00
2022-08-05T09:36:54.382Z,101553.00
2022-08-05T09:39:39.137Z,101546.00
2022-08-05T09:42:13.597Z,101548.00
2022-08-05T09:44:56.554Z,101545.00
2022-08-05T09:47:36.361Z,101549.00
2022-08-05T09:50:37.331Z,101548.00
2022-08-05T09:53:07.334Z,101563.00
2022-08-05T09:55:58.643Z,101571.00
2022-08-05T09:58:28.991Z,101570.00
2022-08-05T10:01:01.603Z,101572.00
2022-08-05T10:03:58.804Z,101573.00
2022-08-05T10:06:28.750Z,101575.00
2022-08-05T10:08:57.813Z,101572.00
2022-08-05T10:11:31.218Z,101568.00
2022-08-05T10:14:23.759Z,101578.00
2022-08-05T10:16:57.180Z,101582.00
2022-08-05T10:20:02.837Z,101579.00
2022-08-05T10:22:15.765Z,101578.00
2022-08-05T10:24:58.510Z,101544.00
2022-08-05T10:28:09.380Z,101574.00
2022-08-05T10:32:48.751Z,101586.00
2022-08-05T10:33:14.555Z,101582.00
2022-08-05T10:35:44.309Z,101568.00
2022-08-05T10:38:14.826Z,101581.00
2022-08-05T10:40:58.002Z,101583.00
2022-08-05T10:43:38.468Z,101563.00
2022-08-05T10:46:10.461Z,101578.00
2022-08-05T10:48:53.022Z,101587.00
2022-08-05T10:51:28.393Z,101589.00
2022-08-05T10:54:01.010Z,101594.00
2022-08-05T10:56:46.890Z,101580.00
2022-08-05T11:00:04.430Z,101598.00
2022-08-05T11:02:14.732Z,101600.00
2022-08-05T11:05:00.266Z,101592.00
2022-08-05T11:07:32.974Z,101605.00
2022-08-05T11:10:27.468Z,101609.00
2022-08-05T11:12:58.725Z,101613.00
2022-08-05T11:15:59.535Z,101616.00
2022-08-05T11:18:32.264Z,101628.00
2022-08-05T11:21:02.651Z,101623.00
2022-08-05T11:24:03.291Z,101626.00
2022-08-05T11:26:29.154Z,101642.00
2022-08-05T11:29:11.574Z,101632.00
2022-08-05T11:31:57.638Z,101647.00
2022-08-05T11:34:52.095Z,101654.00
2022-08-05T11:38:28.002Z,101653.00
2022-08-05T11:41:13.967Z,101657.00
2022-08-05T11:44:06.693Z,101657.00
2022-08-05T11:46:58.404Z,101664.00
2022-08-05T11:49:28.298Z,101673.00
2022-08-05T11:51:57.395Z,101683.00
2022-08-05T11:54:33.271Z,101682.00
2022-08-05T11:57:08.062Z,101668.00
2022-08-05T11:59:52.759Z,101694.00
2022-08-05T12:02:32.025Z,101689.00
2022-08-05T12:05:07.471Z,101696.00
2022-08-05T12:08:07.282Z,101697.00
2022-08-05T12:10:43.402Z,101693.00
2022-08-05T12:13:18.529Z,101714.00
2022-08-05T12:15:58.610Z,101710.00
2022-08-05T12:18:34.178Z,101720.00
2022-08-05T12:21:17.427Z,101704.00
2022-08-05T12:23:59.886Z,101723.00
2022-08-05T12:26:33.290Z,101726.00
2022-08-05T12:29:03.217Z,101737.00
2022-08-05T12:31:46.305Z,101741.00
2022-08-05T12:34:21.515Z,101745.00
2022-08-05T12:36:54.464Z,101750.00
2022-08-05T12:39:28.163Z,101749.00
2022-08-05T12:42:14.510Z,101756.00
2022-08-05T12:44:44.598Z,101762.00
2022-08-05T12:47:17.169Z,101759.00
2022-08-05T12:50:03.507Z,101763.00
2022-08-05T12:52:38.606Z,101777.00
2022-08-05T12:55:22.157Z,101774.00
2022-08-05T12:58:49.312Z,101777.00
2022-08-05T13:01:59.860Z,101767.00
2022-08-05T13:03:33.283Z,101784.00
2022-08-05T13:06:01.831Z,101787.00
2022-08-05T13:08:32.632Z,101781.00
2022-08-05T13:11:02.185Z,101791.00
2022-08-05T13:14:04.667Z,101795.00
2022-08-05T13:16:25.120Z,101794.00
2022-08-05T13:18:58.753Z,101805.00
2022-08-05T13:21:37.897Z,101798.00
2022-08-05T13:24:36.345Z,101813.00
2022-08-05T13:27:11.199Z,101812.00
2022-08-05T13:30:31.441Z,101815.00
2022-08-05T13:32:39.170Z,101815.00
2022-08-05T13:35:11.360Z,101800.00
2022-08-05T13:37:39.943Z,101815.00
2022-08-05T13:40:15.192Z,101826.00
2022-08-05T13:43:00.876Z,101823.00
2022-08-05T13:45:33.981Z,101834.00
2022-08-05T13:48:09.495Z,101824.00
2022-08-05T13:50:55.362Z,101845.00
2022-08-05T13:53:23.845Z,101841.00
2022-08-05T13:55:58.929Z,101846.00
2022-08-05T13:58:31.197Z,101844.00
2022-08-05T14:01:00.143Z,101855.00
2022-08-05T14:03:28.861Z,101860.00
2022-08-05T14:06:24.741Z,101864.00
2022-08-05T14:08:46.263Z,101855.00
2022-08-05T14:11:20.894Z,101863.00
2022-08-05T14:13:54.762Z,101858.00
2022-08-05T14:16:24.105Z,101870.00
2022-08-05T14:18:52.826Z,101875.00
2022-08-05T14:22:08.197Z,101876.00
2022-08-05T14:24:11.067Z,101876.00
2022-08-05T14:26:51.510Z,101876.00
2022-08-05T14:29:31.292Z,101886.00
2022-08-05T14:32:12.205Z,101881.00
2022-08-05T14:34:44.295Z,101883.00
2022-08-05T14:37:14.563Z,101882.00
2022-08-05T14:39:49.679Z,101881.00
2022-08-05T14:42:26.571Z,101888.00
2022-08-05T14:44:56.738Z,101894.00
2022-08-05T14:48:04.093Z,101890.00
2022-08-05T14:50:18.256Z,101886.00
2022-08-05T14:52:53.498Z,101886.00
2022-08-05T14:55:25.592Z,101892.00
2022-08-05T14:57:56.505Z,101900.00
2022-08-05T15:00:28.143Z,101892.00
2022-08-05T15:02:58.240Z,101895.00
2022-08-05T15:05:29.907Z,101890.00
2022-08-05T15:08:06.059Z,101890.00
2022-08-05T15:10:43.463Z,101898.00
2022-08-05T15:13:15.938Z,101897.00
2022-08-05T15:15:55.700Z,101892.00
2022-08-05T15:18:25.025Z,101897.00
2022-08-05T15:20:53.637Z,101903.00
2022-08-05T15:23:22.218Z,101909.00
2022-08-05T15:25:52.088Z,101908.00
2022-08-05T15:28:27.131Z,101906.00
2022-08-05T15:30:57.265Z,101904.00
2022-08-05T15:34:18.907Z,101914.00
2022-08-05T15:36:17.628Z,101910.00
2022-08-05T15:41:04.708Z,101910.00
2022-08-05T15:41:57.549Z,101917.00
2022-08-05T15:44:30.158Z,101917.00
2022-08-05T15:46:59.303Z,101912.00
2022-08-05T15:49:55.097Z,101890.00
2022-08-05T15:52:51.955Z,101907.00
2022-08-05T15:55:10.413Z,101914.00
2022-08-05T15:57:45.904Z,101913.00
2022-08-05T16:00:26.396Z,101912.00
2022-08-05T16:03:01.776Z,101916.00
2022-08-05T16:05:30.677Z,101904.00
2022-08-05T16:07:59.148Z,101918.00
2022-08-05T16:10:28.421Z,101916.00
2022-08-05T16:12:57.760Z,101915.00
2022-08-05T16:15:32.476Z,101897.00
2022-08-05T16:18:01.082Z,101924.00
2022-08-05T16:20:32.737Z,101918.00
2022-08-05T16:23:01.175Z,101920.00
2022-08-05T16:25:32.361Z,101925.00
2022-08-05T16:28:05.926Z,101924.00
2022-08-05T16:30:36.439Z,101939.00
2022-08-05T16:33:05.980Z,101927.00
2022-08-05T16:35:42.018Z,101947.00
2022-08-05T16:38:24.741Z,101933.00
2022-08-05T16:41:00.096Z,101943.00
2022-08-05T16:43:31.443Z,101940.00
2022-08-05T16:46:09.370Z,101930.00
2022-08-05T16:48:51.376Z,101934.00
2022-08-05T16:51:19.712Z,101938.00
2022-08-05T16:54:04.050Z,101952.00
2022-08-05T16:56:41.692Z,101962.00
2022-08-05T16:59:11.795Z,101960.00
2022-08-05T17:01:54.673Z,101956.00
2022-08-05T17:04:27.128Z,101957.00
2022-08-05T17:07:00.879Z,101945.00
2022-08-05T17:09:30.331Z,101946.00
2022-08-05T17:12:07.915Z,101970.00
2022-08-05T17:14:40.306Z,101956.00
2022-08-05T17:17:14.872Z,101972.00
2022-08-05T17:19:46.140Z,101967.00
2022-08-05T17:22:25.153Z,101968.00
2022-08-05T17:24:57.755Z,101965.00
2022-08-05T17:27:33.788Z,101971.00
2022-08-05T17:30:04.202Z,101958.00
2022-08-05T17:32:37.020Z,101980.00
2022-08-05T17:35:07.413Z,101970.00
2022-08-05T17:37:40.648Z,101982.00
2022-08-05T17:40:15.362Z,101986.00
2022-08-05T17:42:50.543Z,101994.00
2022-08-05T17:45:22.061Z,101975.00
2022-08-05T17:47:55.516Z,102001.00
2022-08-05T17:50:30.475Z,101982.00
2022-08-05T17:53:01.449Z,102006.00
2022-08-05T17:55:37.548Z,102005.00
2022-08-05T17:58:11.132Z,102004.00
2022-08-05T18:00:45.252Z,102011.00
2022-08-05T18:03:56.136Z,102015.00
2022-08-05T18:06:12.086Z,101996.00
2022-08-05T18:08:52.532Z,102018.00
2022-08-05T18:11:24.817Z,102023.00
2022-08-05T18:14:04.309Z,102029.00
2022-08-05T18:16:34.056Z,102037.00
2022-08-05T18:19:06.387Z,102019.00
2022-08-05T18:22:07.438Z,102011.00
2022-08-05T18:24:24.226Z,102020.00
2022-08-05T18:26:55.674Z,102030.00
2022-08-05T18:29:40.341Z,102025.00
2022-08-05T18:32:12.666Z,102026.00
2022-08-05T18:34:43.228Z,102038.00
2022-08-05T18:37:16.817Z,102068.00
2022-08-05T18:40:57.617Z,102041.00
2022-08-05T18:42:49.568Z,102069.00
2022-08-05T18:45:20.676Z,102068.00
2022-08-05T18:47:56.277Z,102063.00
2022-08-05T18:50:46.452Z,102089.00
2022-08-05T18:53:22.640Z,102081.00
2022-08-05T18:55:53.244Z,102075.00
2022-08-05T18:58:27.155Z,102079.00
2022-08-05T19:00:58.009Z,102087.00
2022-08-05T19:03:55.787Z,102055.00
2022-08-05T19:06:22.052Z,102094.00
2022-08-05T19:09:02.483Z,102094.00
2022-08-05T19:11:59.426Z,102037.00
2022-08-05T19:14:59.158Z,102093.00
2022-08-05T19:17:11.516Z,102096.00
2022-08-05T19:19:44.142Z,102109.00
2022-08-05T19:22:17.150Z,102083.00
2022-08-05T19:24:54.267Z,102064.00
2022-08-05T19:27:25.483Z,102109.00
2022-08-05T19:29:58.910Z,102118.00
2022-08-05T19:32:27.846Z,102115.00
2022-08-05T19:34:56.946Z,102117.00
2022-08-05T19:37:29.973Z,102121.00
2022-08-05T19:40:16.053Z,102088.00
2022-08-05T19:43:05.456Z,102092.00
2022-08-05T19:45:36.968Z,102144.00
2022-08-05T19:48:06.631Z,102142.00
2022-08-05T19:50:35.754Z,102143.00
2022-08-05T19:53:09.404Z,102154.00
2022-08-05T19:56:14.124Z,102155.00
2022-08-05T19:58:30.133Z,102127.00
2022-08-05T20:00:59.134Z,102161.00
2022-08-05T20:03:38.684Z,102165.00
2022-08-05T20:06:15.717Z,102166.00
2022-08-05T20:08:47.205Z,102169.00
2022-08-05T20:11:18.081Z,102165.00
2022-08-05T20:13:58.102Z,102162.00
2022-08-05T20:16:27.166Z,102170.00
2022-08-05T20:18:56.076Z,102169.00
2022-08-05T20:21:25.548Z,102171.00
2022-08-05T20:23:55.693Z,102177.00
2022-08-05T20:26:26.008Z,102182.00
2022-08-05T20:28:56.792Z,102191.00
2022-08-05T20:31:28.786Z,102193.00
2022-08-05T20:34:05.954Z,102190.00
2022-08-05T20:36:39.155Z,102200.00
2022-08-05T20:39:16.479Z,102185.00
2022-08-05T20:41:46.661Z,102152.00
2022-08-05T20:44:29.563Z,102192.00
2022-08-05T20:47:00.248Z,102198.00
2022-08-05T20:49:29.164Z,102189.00
2022-08-05T20:51:58.467Z,102200.00
2022-08-05T20:54:43.025Z,102204.00
2022-08-05T20:57:24.584Z,102201.00
2022-08-05T21:00:41.270Z,102208.00
2022-08-05T21:03:01.294Z,102204.00
2022-08-05T21:05:48.250Z,102210.00
2022-08-05T21:08:18.578Z,102221.00
2022-08-05T21:10:49.751Z,102210.00
2022-08-05T21:13:26.396Z,102157.00
2022-08-05T21:16:09.090Z,102183.00
2022-08-05T21:18:37.363Z,102221.00
2022-08-05T21:21:06.115Z,102224.00
2022-08-05T21:23:37.057Z,102161.00
2022-08-05T21:26:14.238Z,102190.00
2022-08-05T21:28:47.841Z,102182.00
2022-08-05T21:31:19.999Z,102236.00
2022-08-05T21:33:49.825Z,102200.00
2022-08-05T21:36:27.455Z,102232.00
2022-08-05T21:38:58.705Z,102203.00
2022-08-05T21:41:33.020Z,102223.00
2022-08-05T21:44:04.233Z,102225.00
2022-08-05T21:46:34.292Z,102221.00
2022-08-05T21:49:04.750Z,102199.00
2022-08-05T21:52:23.030Z,102202.00
2022-08-05T21:54:27.895Z,102212.00
2022-08-05T21:57:31.641Z,102223.00
2022-08-05T22:00:04.024Z,102230.00
2022-08-05T22:02:35.655Z,102199.00
2022-08-05T22:05:06.374Z,102229.00
2022-08-05T22:07:39.818Z,102196.00
2022-08-05T22:10:26.914Z,102191.00
2022-08-05T22:12:59.025Z,102188.00
2022-08-05T22:16:01.367Z,102237.00
2022-08-05T22:18:25.780Z,102207.00
2022-08-05T22:20:54.354Z,102239.00
2022-08-05T22:24:01.269Z,102254.00
2022-08-05T22:26:49.657Z,102251.00
2022-08-05T22:29:26.153Z,102240.00
2022-08-05T22:31:59.380Z,102236.00
2022-08-05T22:34:31.819Z,102244.00
2022-08-05T22:37:00.717Z,102259.00
2022-08-05T22:39:34.549Z,102258.00
2022-08-05T22:42:09.472Z,102256.00
2022-08-05T22:44:56.989Z,102262.00
2022-08-05T22:47:29.216Z,102199.00
2022-08-05T22:50:19.731Z,102263.00
2022-08-05T22:52:49.286Z,102199.00
2022-08-05T22:55:21.171Z,102231.00
2022-08-05T22:57:51.172Z,102271.00
2022-08-05T23:00:23.762Z,102217.00
2022-08-05T23:02:53.576Z,102259.00
2022-08-05T23:05:23.824Z,102277.00
2022-08-05T23:07:53.635Z,102240.00
2022-08-05T23:10:23.915Z,102248.00
2022-08-05T23:12:55.074Z,102277.00
2022-08-05T23:15:29.078Z,102244.00
2022-08-05T23:18:00.785Z,102263.00
2022-08-05T23:20:32.362Z,102282.00
2022-08-05T23:23:03.490Z,102250.00
2022-08-05T23:25:53.571Z,102246.00
2022-08-05T23:28:23.838Z,102268.00
2022-08-05T23:30:54.664Z,102256.00
2022-08-05T23:33:26.474Z,102243.00
2022-08-05T23:36:13.613Z,102294.00
2022-08-05T23:38:43.415Z,102294.00
2022-08-05T23:41:12.825Z,102300.00
2022-08-05T23:44:06.046Z,102268.00
2022-08-05T23:46:31.595Z,102249.00
2022-08-05T23:49:02.115Z,102260.00
2022-08-05T23:52:01.862Z,102262.00
2022-08-05T23:54:38.164Z,102241.00
2022-08-05T23:57:08.333Z,102307.00
